Time;durP1;ratioP1;P1;durP2;ratioP2;P2;SDS_P1;SDS_P2;PMS_P1;PMS_P2;Temp;Humidity;BMP_temperature;BMP_pressure;BME280_temperature;BME280_humidity;BME280_pressure;Samples;Min_cycle;Max_cycle;Signal;HPM_P1;HPM_P2
2022/09/09 00:01:00;;;;;;;0.20;0.10;;;;;;;;;;5014867;28;20506;-85
2022/09/09 00:03:27;;;;;;;0.20;0.10;;;;;;;;;;4988442;28;20044;-85
2022/09/09 00:06:04;;;;;;;0.20;0.10;;;;;;;;;;5013263;28;20061;-85
2022/09/09 00:08:54;;;;;;;0.20;0.10;;;;;;;;;;5011012;28;20125;-85
2022/09/09 00:11:27;;;;;;;0.20;0.10;;;;;;;;;;4994336;28;20076;-85
2022/09/09 00:13:54;;;;;;;0.20;0.10;;;;;;;;;;4999038;28;20037;-85
2022/09/09 00:16:22;;;;;;;0.20;0.10;;;;;;;;;;5016971;28;20045;-85
2022/09/09 00:18:48;;;;;;;0.20;0.10;;;;;;;;;;5010786;28;20060;-86
2022/09/09 00:21:15;;;;;;;0.20;0.10;;;;;;;;;;5011389;28;20037;-86
2022/09/09 00:23:51;;;;;;;0.20;0.10;;;;;;;;;;4992006;28;20117;-85
2022/09/09 00:26:23;;;;;;;0.20;0.10;;;;;;;;;;4994811;28;20531;-84
2022/09/09 00:29:00;;;;;;;0.20;0.20;;;;;;;;;;4978384;28;20044;-84
2022/09/09 00:31:28;;;;;;;0.20;0.10;;;;;;;;;;5008462;28;20107;-83
2022/09/09 00:33:55;;;;;;;0.20;0.10;;;;;;;;;;5009354;28;20088;-85
2022/09/09 00:36:25;;;;;;;0.20;0.10;;;;;;;;;;4993521;28;20073;-84
2022/09/09 00:38:58;;;;;;;0.20;0.10;;;;;;;;;;5008316;28;20077;-84
2022/09/09 00:41:34;;;;;;;0.20;0.08;;;;;;;;;;4996303;28;20376;-85
2022/09/09 00:44:13;;;;;;;0.20;0.10;;;;;;;;;;4995171;28;20493;-83
2022/09/09 00:46:56;;;;;;;0.28;0.20;;;;;;;;;;4998131;28;20400;-84
2022/09/09 00:49:35;;;;;;;0.20;0.10;;;;;;;;;;5005492;28;20400;-85
2022/09/09 00:52:13;;;;;;;0.20;0.10;;;;;;;;;;4995650;28;20728;-85
2022/09/09 00:54:59;;;;;;;0.20;0.10;;;;;;;;;;4997300;28;20132;-86
2022/09/09 00:57:27;;;;;;;0.20;0.10;;;;;;;;;;4996396;28;20100;-85
2022/09/09 00:59:58;;;;;;;0.20;0.10;;;;;;;;;;4992475;28;20172;-86
2022/09/09 01:02:30;;;;;;;0.20;0.10;;;;;;;;;;4983289;28;20424;-85
2022/09/09 01:05:05;;;;;;;0.20;0.10;;;;;;;;;;4997691;28;20041;-84
2022/09/09 01:07:32;;;;;;;0.20;0.10;;;;;;;;;;5013028;28;20073;-85
2022/09/09 01:09:59;;;;;;;0.20;0.10;;;;;;;;;;4996481;28;20041;-85
2022/09/09 01:12:47;;;;;;;0.20;0.10;;;;;;;;;;4998418;28;20092;-84
2022/09/09 01:15:24;;;;;;;0.20;0.10;;;;;;;;;;4974282;28;20037;-84
2022/09/09 01:17:56;;;;;;;0.20;0.10;;;;;;;;;;4994424;28;20068;-84
2022/09/09 01:20:25;;;;;;;0.20;0.10;;;;;;;;;;4995913;28;20038;-85
2022/09/09 01:22:54;;;;;;;0.20;0.10;;;;;;;;;;4995302;28;20439;-84
2022/09/09 01:25:29;;;;;;;0.20;0.10;;;;;;;;;;4996468;28;20041;-84
2022/09/09 01:28:05;;;;;;;0.20;0.10;;;;;;;;;;4994489;28;20059;-85
2022/09/09 01:30:32;;;;;;;0.20;0.10;;;;;;;;;;4992028;28;20048;-85
2022/09/09 01:33:00;;;;;;;0.20;0.10;;;;;;;;;;4979499;28;20045;-84
2022/09/09 01:35:45;;;;;;;0.20;0.10;;;;;;;;;;4980184;28;20041;-85
2022/09/09 01:38:11;;;;;;;0.20;0.10;;;;;;;;;;4975071;28;20109;-85
2022/09/09 01:40:37;;;;;;;0.20;0.10;;;;;;;;;;4993189;28;20069;-84
2022/09/09 01:43:04;;;;;;;0.20;0.10;;;;;;;;;;4994208;28;20563;-85
2022/09/09 01:45:30;;;;;;;0.20;0.10;;;;;;;;;;4999366;28;20542;-85
2022/09/09 01:47:57;;;;;;;0.20;0.10;;;;;;;;;;5011248;28;20045;-85
2022/09/09 01:50:23;;;;;;;0.20;0.10;;;;;;;;;;4966485;28;20412;-84
2022/09/09 01:52:57;;;;;;;0.20;0.10;;;;;;;;;;4998233;28;20037;-84
2022/09/09 01:55:42;;;;;;;0.20;0.10;;;;;;;;;;4993856;28;20033;-85
2022/09/09 01:58:25;;;;;;;0.20;0.10;;;;;;;;;;4980549;28;20052;-85
2022/09/09 02:00:56;;;;;;;0.20;0.10;;;;;;;;;;5014158;28;20042;-85
2022/09/09 02:03:25;;;;;;;0.40;0.20;;;;;;;;;;4997710;28;20106;-85
2022/09/09 02:05:51;;;;;;;0.82;0.70;;;;;;;;;;5013365;28;20066;-84
2022/09/09 02:08:24;;;;;;;0.20;0.10;;;;;;;;;;5017527;28;20583;-85
2022/09/09 02:10:56;;;;;;;0.20;0.10;;;;;;;;;;5008410;28;20097;-85
2022/09/09 02:13:22;;;;;;;;;;;;;;;;;;4999385;28;20072;-85
2022/09/09 02:15:56;;;;;;;0.20;0.10;;;;;;;;;;4998260;28;19917;-86
2022/09/09 02:18:25;;;;;;;0.20;0.10;;;;;;;;;;4985480;28;20549;-89
2022/09/09 02:20:52;;;;;;;0.20;0.10;;;;;;;;;;4990384;28;20513;-87
2022/09/09 02:23:20;;;;;;;0.20;0.10;;;;;;;;;;4985116;28;20034;-85
2022/09/09 02:25:46;;;;;;;0.20;0.10;;;;;;;;;;5000964;28;20037;-88
2022/09/09 02:28:15;;;;;;;0.20;0.10;;;;;;;;;;4976894;28;20071;-87
2022/09/09 02:30:42;;;;;;;0.20;0.10;;;;;;;;;;5009231;28;20037;-86
2022/09/09 02:33:12;;;;;;;0.20;0.10;;;;;;;;;;4973682;28;20038;-89
2022/09/09 02:35:38;;;;;;;0.20;0.10;;;;;;;;;;5003396;28;20450;-86
2022/09/09 02:38:07;;;;;;;0.20;0.10;;;;;;;;;;5004455;28;20048;-85
2022/09/09 02:40:33;;;;;;;0.20;0.10;;;;;;;;;;4985585;28;20495;-86
2022/09/09 02:42:59;;;;;;;0.20;0.10;;;;;;;;;;5002822;28;20037;-87
2022/09/09 02:45:45;;;;;;;0.20;0.10;;;;;;;;;;5000594;28;20042;-88
2022/09/09 02:48:26;;;;;;;0.20;0.10;;;;;;;;;;5001062;28;20128;-86
2022/09/09 02:51:04;;;;;;;0.20;0.10;;;;;;;;;;5005889;28;20048;-86
2022/09/09 02:53:40;;;;;;;0.20;0.10;;;;;;;;;;5019361;28;20120;-88
2022/09/09 02:56:12;;;;;;;0.20;0.10;;;;;;;;;;4985086;28;20046;-87
2022/09/09 02:58:39;;;;;;;0.20;0.10;;;;;;;;;;5017458;28;20051;-84
2022/09/09 03:01:05;;;;;;;0.20;0.10;;;;;;;;;;5011360;28;20045;-85
2022/09/09 03:03:31;;;;;;;0.20;0.10;;;;;;;;;;4985223;28;20040;-85
2022/09/09 03:05:58;;;;;;;0.20;0.10;;;;;;;;;;4987047;28;20038;-86
2022/09/09 03:08:24;;;;;;;0.20;0.10;;;;;;;;;;5013673;28;20037;-88
2022/09/09 03:10:50;;;;;;;0.20;0.10;;;;;;;;;;5003200;28;20046;-84
2022/09/09 03:13:16;;;;;;;0.20;0.15;;;;;;;;;;4990153;28;20033;-86
2022/09/09 03:15:42;;;;;;;0.20;0.10;;;;;;;;;;5000054;28;20062;-86
2022/09/09 03:18:08;;;;;;;0.20;0.10;;;;;;;;;;5009629;28;20130;-86
2022/09/09 03:20:34;;;;;;;0.20;0.15;;;;;;;;;;5007149;28;20044;-84
2022/09/09 03:23:02;;;;;;;0.20;0.10;;;;;;;;;;5005876;28;20172;-85
2022/09/09 03:25:28;;;;;;;0.20;0.10;;;;;;;;;;4991308;22;20536;-86
2022/09/09 03:27:55;;;;;;;0.20;0.10;;;;;;;;;;4969051;28;20035;-86
2022/09/09 03:30:22;;;;;;;0.20;0.10;;;;;;;;;;4967003;28;20046;-85
2022/09/09 03:32:48;;;;;;;0.20;0.10;;;;;;;;;;4970515;28;20524;-86
2022/09/09 03:35:15;;;;;;;0.20;0.10;;;;;;;;;;4967187;28;20047;-86
2022/09/09 03:37:41;;;;;;;0.20;0.10;;;;;;;;;;4965017;28;20042;-86
2022/09/09 03:40:09;;;;;;;0.20;0.10;;;;;;;;;;4947070;28;20046;-86
2022/09/09 03:42:36;;;;;;;0.20;0.10;;;;;;;;;;4963571;28;20152;-86
2022/09/09 03:45:04;;;;;;;1.45;0.30;;;;;;;;;;4963653;28;20042;-85
2022/09/09 03:47:30;;;;;;;0.20;0.10;;;;;;;;;;4967265;28;20043;-86
2022/09/09 03:49:56;;;;;;;0.20;0.05;;;;;;;;;;4948761;28;20035;-87
2022/09/09 03:52:24;;;;;;;0.20;0.10;;;;;;;;;;4965857;28;20125;-86
2022/09/09 03:54:51;;;;;;;1.75;0.50;;;;;;;;;;4964704;28;20259;-87
2022/09/09 03:57:17;;;;;;;0.20;0.10;;;;;;;;;;4965757;28;20417;-86
2022/09/09 03:59:46;;;;;;;0.20;0.10;;;;;;;;;;4950769;28;20046;-84
2022/09/09 04:02:19;;;;;;;0.20;0.10;;;;;;;;;;4965313;28;20540;-87
2022/09/09 04:04:45;;;;;;;0.20;0.10;;;;;;;;;;4948242;28;20104;-85
2022/09/09 04:07:14;;;;;;;0.20;0.10;;;;;;;;;;4969711;28;20050;-86
2022/09/09 04:09:45;;;;;;;0.20;0.00;;;;;;;;;;4932525;28;20089;-86
2022/09/09 04:12:17;;;;;;;0.20;0.10;;;;;;;;;;4948246;28;20349;-88
2022/09/09 04:14:43;;;;;;;0.20;0.00;;;;;;;;;;4935728;28;20042;-86
2022/09/09 04:17:10;;;;;;;0.20;0.00;;;;;;;;;;4933401;28;20089;-85
2022/09/09 04:19:36;;;;;;;0.20;0.10;;;;;;;;;;4949891;28;21276;-86
2022/09/09 04:22:02;;;;;;;0.22;0.13;;;;;;;;;;4954614;28;20100;-87
2022/09/09 04:24:28;;;;;;;0.20;0.10;;;;;;;;;;4948422;28;20513;-88
2022/09/09 04:26:55;;;;;;;0.20;0.00;;;;;;;;;;4965344;28;20983;-87
2022/09/09 04:29:31;;;;;;;0.20;0.10;;;;;;;;;;4931531;28;20070;-87
2022/09/09 04:31:57;;;;;;;0.20;0.10;;;;;;;;;;4926285;28;20052;-88
2022/09/09 04:34:23;;;;;;;0.20;0.10;;;;;;;;;;4926946;28;20407;-88
2022/09/09 04:36:51;;;;;;;0.20;0.10;;;;;;;;;;4940774;28;20063;-86
2022/09/09 04:39:17;;;;;;;0.20;0.10;;;;;;;;;;4928432;28;20554;-86
2022/09/09 04:41:44;;;;;;;0.20;0.10;;;;;;;;;;4938462;28;20066;-86
2022/09/09 04:44:10;;;;;;;0.20;0.10;;;;;;;;;;4956543;28;20062;-85
2022/09/09 04:46:36;;;;;;;0.20;0.10;;;;;;;;;;4964050;28;20046;-85
2022/09/09 04:49:02;;;;;;;0.20;0.10;;;;;;;;;;4960324;28;20050;-89
2022/09/09 04:51:28;;;;;;;0.20;0.10;;;;;;;;;;4948157;28;20085;-85
2022/09/09 04:53:54;;;;;;;0.20;0.10;;;;;;;;;;4955766;28;22392;-86
2022/09/09 04:56:20;;;;;;;0.20;0.10;;;;;;;;;;4953509;28;20041;-87
2022/09/09 04:58:46;;;;;;;0.20;0.10;;;;;;;;;;4961331;28;20042;-85
2022/09/09 05:01:12;;;;;;;0.20;0.10;;;;;;;;;;4919614;28;20041;-86
2022/09/09 05:03:39;;;;;;;0.20;0.10;;;;;;;;;;4938770;28;20054;-88
2022/09/09 05:06:06;;;;;;;0.20;0.10;;;;;;;;;;4961514;28;20125;-86
2022/09/09 05:08:32;;;;;;;0.20;0.10;;;;;;;;;;4963582;28;20053;-90
2022/09/09 05:10:59;;;;;;;0.20;0.10;;;;;;;;;;4965827;28;20116;-88
2022/09/09 05:13:26;;;;;;;0.20;0.10;;;;;;;;;;4942033;28;20130;-87
2022/09/09 05:15:55;;;;;;;0.20;0.10;;;;;;;;;;4928575;28;20110;-87
2022/09/09 05:18:22;;;;;;;0.20;0.05;;;;;;;;;;4957323;28;20517;-88
2022/09/09 05:20:48;;;;;;;0.20;0.10;;;;;;;;;;4945173;28;20075;-87
2022/09/09 05:23:14;;;;;;;0.20;0.10;;;;;;;;;;4946684;28;20050;-87
2022/09/09 05:25:43;;;;;;;0.20;0.10;;;;;;;;;;4937322;28;20117;-88
2022/09/09 05:28:11;;;;;;;0.20;0.10;;;;;;;;;;4963821;28;20054;-90
2022/09/09 05:30:37;;;;;;;0.20;0.10;;;;;;;;;;4963969;28;20047;-86
2022/09/09 05:33:04;;;;;;;0.20;0.00;;;;;;;;;;4932868;29;20035;-86
2022/09/09 05:35:30;;;;;;;0.20;0.00;;;;;;;;;;4944254;28;20050;-87
2022/09/09 05:38:00;;;;;;;0.20;0.10;;;;;;;;;;4946791;28;20602;-86
2022/09/09 05:40:29;;;;;;;0.20;0.10;;;;;;;;;;4947712;28;20038;-88
2022/09/09 05:42:55;;;;;;;0.20;0.10;;;;;;;;;;4953387;28;20504;-86
2022/09/09 05:45:25;;;;;;;0.20;0.10;;;;;;;;;;4952605;28;20529;-89
2022/09/09 05:47:55;;;;;;;0.20;0.10;;;;;;;;;;4943785;28;20043;-87
2022/09/09 05:50:22;;;;;;;0.20;0.10;;;;;;;;;;4951488;28;20065;-87
2022/09/09 05:52:49;;;;;;;0.20;0.10;;;;;;;;;;4958713;28;20038;-85
2022/09/09 05:55:15;;;;;;;0.20;0.13;;;;;;;;;;4963093;28;20070;-86
2022/09/09 05:57:42;;;;;;;0.20;0.13;;;;;;;;;;4972833;28;20439;-86
2022/09/09 06:00:08;;;;;;;0.20;0.10;;;;;;;;;;4958446;28;20043;-88
2022/09/09 06:02:36;;;;;;;0.20;0.10;;;;;;;;;;4956507;28;20087;-84
2022/09/09 06:05:02;;;;;;;0.20;0.10;;;;;;;;;;4976803;28;20145;-87
2022/09/09 06:07:28;;;;;;;0.20;0.00;;;;;;;;;;4937760;28;20076;-88
2022/09/09 06:09:58;;;;;;;0.20;0.10;;;;;;;;;;4934583;28;20159;-89
2022/09/09 06:12:25;;;;;;;0.20;0.10;;;;;;;;;;4961896;28;20136;-86
2022/09/09 06:14:57;;;;;;;0.20;0.10;;;;;;;;;;4972007;28;20054;-86
2022/09/09 06:17:23;;;;;;;0.20;0.10;;;;;;;;;;4951634;28;20039;-87
2022/09/09 06:19:55;;;;;;;0.20;0.10;;;;;;;;;;4941169;28;20121;-86
2022/09/09 06:22:23;;;;;;;0.20;0.10;;;;;;;;;;4978202;28;20043;-86
2022/09/09 06:24:50;;;;;;;0.20;0.10;;;;;;;;;;4975321;28;20039;-86
2022/09/09 06:27:17;;;;;;;0.20;0.10;;;;;;;;;;4966666;28;20142;-85
2022/09/09 06:29:43;;;;;;;0.20;0.10;;;;;;;;;;4946052;28;20043;-86
2022/09/09 06:32:09;;;;;;;0.20;0.10;;;;;;;;;;4958262;28;20039;-87
2022/09/09 06:34:36;;;;;;;0.20;0.10;;;;;;;;;;4974981;28;20085;-88
2022/09/09 06:37:02;;;;;;;0.20;0.10;;;;;;;;;;4958679;28;20045;-84
2022/09/09 06:39:31;;;;;;;0.20;0.10;;;;;;;;;;4978943;28;20045;-87
2022/09/09 06:41:58;;;;;;;0.20;0.10;;;;;;;;;;4954759;28;20039;-87
2022/09/09 06:44:26;;;;;;;0.20;0.10;;;;;;;;;;4961011;28;20077;-86
2022/09/09 06:46:53;;;;;;;0.20;0.05;;;;;;;;;;4956327;28;20039;-87
2022/09/09 06:49:19;;;;;;;0.20;0.10;;;;;;;;;;4960595;28;20034;-87
2022/09/09 06:51:46;;;;;;;0.20;0.00;;;;;;;;;;4967995;28;20058;-88
2022/09/09 06:54:12;;;;;;;0.20;0.10;;;;;;;;;;4973013;28;20069;-89
2022/09/09 06:56:43;;;;;;;0.20;0.10;;;;;;;;;;4978588;28;20494;-88
2022/09/09 06:59:09;;;;;;;0.20;0.10;;;;;;;;;;4960590;28;20050;-88
2022/09/09 07:01:37;;;;;;;0.20;0.10;;;;;;;;;;4951437;28;20047;-88
2022/09/09 07:04:04;;;;;;;0.20;0.10;;;;;;;;;;4974284;28;20081;-88
2022/09/09 07:06:34;;;;;;;0.20;0.00;;;;;;;;;;4944660;28;20038;-86
2022/09/09 07:09:03;;;;;;;0.20;0.10;;;;;;;;;;4964559;28;20505;-88
2022/09/09 07:11:51;;;;;;;0.20;0.10;;;;;;;;;;4975267;28;20042;-88
2022/09/09 07:14:17;;;;;;;0.20;0.00;;;;;;;;;;4960386;28;20470;-86
2022/09/09 07:16:44;;;;;;;0.20;0.10;;;;;;;;;;4956111;28;20358;-87
2022/09/09 07:19:11;;;;;;;0.20;0.00;;;;;;;;;;4950955;28;20051;-86
2022/09/09 07:21:37;;;;;;;0.20;0.10;;;;;;;;;;4952441;28;20046;-87
2022/09/09 07:24:07;;;;;;;0.20;0.05;;;;;;;;;;4954233;28;20564;-90
2022/09/09 07:26:33;;;;;;;0.20;0.10;;;;;;;;;;4950931;28;20154;-86
2022/09/09 07:28:59;;;;;;;0.20;0.10;;;;;;;;;;4941874;28;20133;-89
2022/09/09 07:31:26;;;;;;;0.22;0.20;;;;;;;;;;4947653;28;20548;-87
2022/09/09 07:33:53;;;;;;;0.20;0.10;;;;;;;;;;4946341;28;20061;-85
2022/09/09 07:36:23;;;;;;;0.20;0.10;;;;;;;;;;4952087;28;20066;-86
2022/09/09 07:38:51;;;;;;;0.20;0.10;;;;;;;;;;4958249;28;20100;-87
2022/09/09 07:41:33;;;;;;;0.50;0.20;;;;;;;;;;4954299;28;20096;-85
2022/09/09 07:44:00;;;;;;;0.20;0.10;;;;;;;;;;4970131;28;20039;-85
2022/09/09 07:46:27;;;;;;;0.20;0.10;;;;;;;;;;4971763;28;20062;-85
2022/09/09 07:48:55;;;;;;;0.20;0.10;;;;;;;;;;4927433;28;20618;-85
2022/09/09 07:51:41;;;;;;;0.20;0.10;;;;;;;;;;4947617;28;20089;-86
2022/09/09 07:54:09;;;;;;;0.20;0.10;;;;;;;;;;4972067;28;20089;-86
2022/09/09 07:56:35;;;;;;;0.20;0.10;;;;;;;;;;4954362;28;20173;-88
2022/09/09 07:59:04;;;;;;;0.20;0.10;;;;;;;;;;4954035;28;20074;-85
2022/09/09 08:01:37;;;;;;;0.20;0.10;;;;;;;;;;4962503;28;20070;-85
2022/09/09 08:04:07;;;;;;;0.43;0.20;;;;;;;;;;4953576;28;20131;-85
2022/09/09 08:06:37;;;;;;;0.20;0.10;;;;;;;;;;4971821;28;20126;-85
2022/09/09 08:09:04;;;;;;;0.20;0.10;;;;;;;;;;4969677;28;20519;-87
2022/09/09 08:11:30;;;;;;;0.20;0.10;;;;;;;;;;4986932;28;20053;-89
2022/09/09 08:13:56;;;;;;;0.20;0.03;;;;;;;;;;4940726;28;20042;-85
2022/09/09 08:16:27;;;;;;;0.20;0.10;;;;;;;;;;4969232;28;20189;-82
2022/09/09 08:18:57;;;;;;;0.20;0.10;;;;;;;;;;4969196;28;20038;-85
2022/09/09 08:21:34;;;;;;;0.20;0.03;;;;;;;;;;4939091;28;20035;-84
2022/09/09 08:24:01;;;;;;;0.20;0.10;;;;;;;;;;4955253;28;20358;-85
2022/09/09 08:26:28;;;;;;;0.20;0.10;;;;;;;;;;4943464;28;20512;-85
2022/09/09 08:28:56;;;;;;;0.20;0.10;;;;;;;;;;4959598;28;20574;-86
2022/09/09 08:31:24;;;;;;;0.20;0.10;;;;;;;;;;4952480;28;20219;-85
2022/09/09 08:33:50;;;;;;;0.20;0.10;;;;;;;;;;4971441;28;20564;-87
2022/09/09 08:36:23;;;;;;;0.20;0.10;;;;;;;;;;4945335;28;20201;-86
2022/09/09 08:38:51;;;;;;;0.20;0.10;;;;;;;;;;4963231;28;20052;-87
2022/09/09 08:41:23;;;;;;;0.20;0.10;;;;;;;;;;4956107;28;20039;-86
2022/09/09 08:43:51;;;;;;;0.20;0.10;;;;;;;;;;4944072;28;20145;-87
2022/09/09 08:46:33;;;;;;;0.20;0.10;;;;;;;;;;4955607;28;20042;-85
2022/09/09 08:49:10;;;;;;;0.20;0.10;;;;;;;;;;4968589;28;20421;-87
2022/09/09 08:51:36;;;;;;;0.20;0.10;;;;;;;;;;4953882;28;20051;-87
2022/09/09 08:54:03;;;;;;;0.20;0.10;;;;;;;;;;4940655;28;20054;-85
2022/09/09 08:56:31;;;;;;;0.20;0.10;;;;;;;;;;4960288;28;20136;-86
2022/09/09 08:59:00;;;;;;;0.20;0.10;;;;;;;;;;4960333;28;20050;-86
2022/09/09 09:01:50;;;;;;;0.20;0.10;;;;;;;;;;4945210;28;20035;-85
2022/09/09 09:04:16;;;;;;;0.20;0.10;;;;;;;;;;4949981;28;20042;-84
2022/09/09 09:06:52;;;;;;;0.20;0.00;;;;;;;;;;4946778;28;20058;-89
2022/09/09 09:09:42;;;;;;;0.20;0.00;;;;;;;;;;4954698;28;20055;-87
2022/09/09 09:12:16;;;;;;;0.20;0.10;;;;;;;;;;4965856;28;20054;-85
2022/09/09 09:14:43;;;;;;;0.20;0.10;;;;;;;;;;4952880;28;20039;-89
2022/09/09 09:17:20;;;;;;;0.20;0.10;;;;;;;;;;4949847;28;20039;-83
2022/09/09 09:19:52;;;;;;;0.20;0.10;;;;;;;;;;4969547;28;20118;-87
2022/09/09 09:22:32;;;;;;;0.20;0.10;;;;;;;;;;4970418;28;20629;-86
2022/09/09 09:25:12;;;;;;;0.20;0.10;;;;;;;;;;4992887;23;20052;-88
2022/09/09 09:27:49;;;;;;;0.20;0.10;;;;;;;;;;5059764;28;20049;-88
2022/09/09 09:30:17;;;;;;;0.20;0.10;;;;;;;;;;5037153;28;20049;-85
2022/09/09 09:32:49;;;;;;;0.20;0.10;;;;;;;;;;5050076;28;20040;-86
2022/09/09 09:35:16;;;;;;;0.20;0.10;;;;;;;;;;5037190;28;20033;-86
2022/09/09 09:37:46;;;;;;;0.30;0.20;;;;;;;;;;5046975;28;20033;-89
2022/09/09 09:40:20;;;;;;;0.20;0.10;;;;;;;;;;5032977;28;20040;-86
2022/09/09 09:42:57;;;;;;;0.20;0.10;;;;;;;;;;5045975;28;20232;-85
2022/09/09 09:45:33;;;;;;;0.20;0.10;;;;;;;;;;5058381;28;20044;-85
2022/09/09 09:48:10;;;;;;;0.20;0.10;;;;;;;;;;5040126;28;20037;-88
2022/09/09 09:51:15;;;;;;;;;;;;;;;;;;;;;
2022/09/09 09:54:27;;;;;;;0.20;0.20;;;;;;;;;;5002055;28;20038;-89
2022/09/09 09:57:53;;;;;;;0.20;0.10;;;;;;;;;;5003549;28;20041;-85
2022/09/09 10:00:32;;;;;;;0.20;0.10;;;;;;;;;;4942571;28;20183;-85
2022/09/09 10:03:01;;;;;;;0.20;0.10;;;;;;;;;;4910996;28;20055;-86
2022/09/09 10:09:09;;;;;;;;;;;;;;;;;;;;;
2022/09/09 10:12:17;;;;;;;;;;;;;;;;;;;;;
2022/09/09 10:15:30;;;;;;;;;;;;;;;;;;;;;
2022/09/09 10:18:48;;;;;;;0.20;0.10;;;;;;;;;;5057331;28;20091;-87
2022/09/09 10:22:02;;;;;;;0.20;0.10;;;;;;;;;;5042129;28;20102;-88
2022/09/09 10:24:41;;;;;;;;;;;;;;;;;;;;;
2022/09/09 10:27:31;;;;;;;0.20;0.10;;;;;;;;;;5162648;22;20838;-85
2022/09/09 10:30:19;;;;;;;0.20;0.10;;;;;;;;;;5015002;28;20042;-88
2022/09/09 10:33:12;;;;;;;0.20;0.10;;;;;;;;;;5022648;28;20041;-87
2022/09/09 10:36:05;;;;;;;0.20;0.10;;;;;;;;;;5013922;28;20073;-86
2022/09/09 10:38:43;;;;;;;0.20;0.10;;;;;;;;;;5005838;28;20124;-87
2022/09/09 10:44:56;;;;;;;0.20;0.10;;;;;;;;;;5015333;28;20037;-86
2022/09/09 10:47:42;;;;;;;;;;;;;;;;;;;;;
2022/09/09 10:50:21;;;;;;;;;;;;;;;;;;;;;
2022/09/09 10:53:09;;;;;;;0.20;0.10;;;;;;;;;;5008213;28;20037;-86
2022/09/09 10:55:45;;;;;;;0.20;0.10;;;;;;;;;;4995880;28;20072;-85
2022/09/09 10:58:27;;;;;;;0.20;0.10;;;;;;;;;;5015181;28;20041;-87
2022/09/09 11:04:58;;;;;;;0.20;0.10;;;;;;;;;;4964789;28;20556;-86
2022/09/09 11:07:45;;;;;;;0.20;0.10;;;;;;;;;;4961738;28;20045;-86
2022/09/09 11:10:59;;;;;;;;;;;;;;;;;;;;;
2022/09/09 11:13:34;;;;;;;0.20;0.10;;;;;;;;;;5010993;28;20060;-86
2022/09/09 11:19:33;;;;;;;0.20;0.15;;;;;;;;;;5019283;28;20150;-85
2022/09/09 11:22:21;;;;;;;0.20;0.10;;;;;;;;;;5008729;28;20083;-85
2022/09/09 11:24:51;;;;;;;0.20;0.10;;;;;;;;;;5010817;28;20049;-83
2022/09/09 11:27:23;;;;;;;0.20;0.10;;;;;;;;;;5008176;28;20045;-85
2022/09/09 11:30:11;;;;;;;0.20;0.10;;;;;;;;;;5005224;28;20528;-86
2022/09/09 11:36:24;;;;;;;0.20;0.10;;;;;;;;;;5009507;28;20084;-85
2022/09/09 11:39:01;;;;;;;0.20;0.10;;;;;;;;;;5004868;28;20052;-86
2022/09/09 11:41:47;;;;;;;0.20;0.10;;;;;;;;;;4993886;28;20116;-88
2022/09/09 11:44:43;;;;;;;;;;;;;;;;;;;;;
2022/09/09 11:47:26;;;;;;;0.20;0.10;;;;;;;;;;5006339;28;20499;-85
2022/09/09 11:50:30;;;;;;;0.20;0.10;;;;;;;;;;4995269;28;20151;-86
2022/09/09 11:53:16;;;;;;;0.30;0.20;;;;;;;;;;4974211;28;20266;-87
2022/09/09 11:55:42;;;;;;;0.20;0.10;;;;;;;;;;4992082;28;20489;-85
2022/09/09 11:58:23;;;;;;;0.20;0.10;;;;;;;;;;5004708;28;20083;-85
2022/09/09 12:00:58;;;;;;;0.20;0.10;;;;;;;;;;5005965;28;20044;-84
2022/09/09 12:03:47;;;;;;;1.58;1.48;;;;;;;;;;4983183;28;20053;-84
2022/09/09 12:06:36;;;;;;;0.20;0.10;;;;;;;;;;5013063;28;20041;-85
2022/09/09 12:09:24;;;;;;;0.20;0.10;;;;;;;;;;4996507;28;20297;-85
2022/09/09 12:11:53;;;;;;;0.20;0.10;;;;;;;;;;5018076;28;20048;-85
2022/09/09 12:14:45;;;;;;;0.20;0.10;;;;;;;;;;4983179;28;20411;-82
2022/09/09 12:17:30;;;;;;;0.20;0.10;;;;;;;;;;4972127;28;20046;-86
2022/09/09 12:20:19;;;;;;;0.20;0.10;;;;;;;;;;5011806;28;20037;-86
2022/09/09 12:26:17;;;;;;;0.20;0.10;;;;;;;;;;5002278;28;20186;-86
2022/09/09 12:28:57;;;;;;;0.20;0.10;;;;;;;;;;4983332;28;20149;-86
2022/09/09 12:32:03;;;;;;;0.20;0.10;;;;;;;;;;5003545;28;20103;-86
2022/09/09 12:34:38;;;;;;;0.20;0.10;;;;;;;;;;4986457;28;20076;-87
2022/09/09 12:37:18;;;;;;;0.20;0.10;;;;;;;;;;4999088;28;20479;-86
2022/09/09 12:40:02;;;;;;;0.20;0.10;;;;;;;;;;5001619;28;20049;-87
2022/09/09 12:42:28;;;;;;;0.20;0.10;;;;;;;;;;5018013;28;20045;-85
2022/09/09 12:45:06;;;;;;;;;;;;;;;;;;4985842;28;20045;-86
2022/09/09 12:47:57;;;;;;;0.20;0.10;;;;;;;;;;4985251;28;19917;-86
2022/09/09 12:50:50;;;;;;;0.20;0.10;;;;;;;;;;5019825;28;20047;-85
2022/09/09 12:53:26;;;;;;;0.20;0.10;;;;;;;;;;5015669;28;20048;-85
2022/09/09 12:56:12;;;;;;;0.20;0.00;;;;;;;;;;4989164;28;20037;-86
2022/09/09 12:59:01;;;;;;;0.82;0.52;;;;;;;;;;5003815;28;20132;-85
2022/09/09 13:01:29;;;;;;;0.20;0.10;;;;;;;;;;4980493;28;20041;-86
2022/09/09 13:03:58;;;;;;;0.20;0.10;;;;;;;;;;4978899;28;20075;-82
2022/09/09 13:06:32;;;;;;;0.20;0.10;;;;;;;;;;4982908;28;20160;-91
2022/09/09 13:09:16;;;;;;;0.30;0.20;;;;;;;;;;5018481;28;20037;-84
2022/09/09 13:11:46;;;;;;;0.20;0.10;;;;;;;;;;5003527;28;20095;-87
2022/09/09 13:14:19;;;;;;;0.20;0.10;;;;;;;;;;4986198;28;20037;-84
2022/09/09 13:17:03;;;;;;;0.20;0.10;;;;;;;;;;4985399;28;20359;-84
2022/09/09 13:20:08;;;;;;;0.20;0.10;;;;;;;;;;4984148;28;20055;-84
2022/09/09 13:22:47;;;;;;;0.20;0.10;;;;;;;;;;4985964;28;20079;-83
2022/09/09 13:25:25;;;;;;;0.20;0.10;;;;;;;;;;4990429;28;20407;-86
2022/09/09 13:28:22;;;;;;;0.20;0.10;;;;;;;;;;4990368;28;20482;-89
2022/09/09 13:31:31;;;;;;;0.20;0.10;;;;;;;;;;5002768;28;20819;-87
2022/09/09 13:34:16;;;;;;;0.20;0.10;;;;;;;;;;4944556;28;20425;-87
2022/09/09 13:36:45;;;;;;;0.20;0.10;;;;;;;;;;4996047;28;20057;-87
2022/09/09 13:39:17;;;;;;;0.20;0.10;;;;;;;;;;4999896;28;20039;-84
2022/09/09 13:42:02;;;;;;;;;;;;;;;;;;;;;
2022/09/09 13:44:38;;;;;;;0.20;0.10;;;;;;;;;;5024624;28;20148;-87
2022/09/09 13:47:20;;;;;;;0.20;0.10;;;;;;;;;;5003564;28;20041;-87
2022/09/09 13:49:55;;;;;;;0.20;0.10;;;;;;;;;;5003443;28;20581;-86
2022/09/09 13:52:40;;;;;;;0.20;0.10;;;;;;;;;;5008994;28;20045;-86
2022/09/09 13:55:07;;;;;;;0.20;0.10;;;;;;;;;;4977431;28;20037;-83
2022/09/09 13:57:34;;;;;;;0.20;0.10;;;;;;;;;;5003959;28;20402;-86
2022/09/09 14:00:08;;;;;;;0.20;0.10;;;;;;;;;;5006412;28;20037;-86
2022/09/09 14:02:47;;;;;;;0.20;0.10;;;;;;;;;;5001028;28;20072;-87
2022/09/09 14:05:20;;;;;;;0.20;0.10;;;;;;;;;;4987154;28;20859;-90
2022/09/09 14:07:46;;;;;;;0.20;0.10;;;;;;;;;;5002544;28;20041;-86
2022/09/09 14:10:20;;;;;;;0.20;0.10;;;;;;;;;;5018926;28;20084;-87
2022/09/09 14:12:46;;;;;;;1.10;0.65;;;;;;;;;;4992703;28;20049;-86
2022/09/09 14:15:42;;;;;;;0.20;0.10;;;;;;;;;;5008764;28;20500;-85
2022/09/09 14:18:19;;;;;;;0.20;0.10;;;;;;;;;;5022593;28;20530;-86
2022/09/09 14:20:57;;;;;;;0.20;0.10;;;;;;;;;;5027615;28;20049;-88
2022/09/09 14:23:57;;;;;;;0.20;0.10;;;;;;;;;;5007428;28;20037;-88
2022/09/09 14:26:29;;;;;;;0.20;0.00;;;;;;;;;;4994380;28;20045;-86
2022/09/09 14:29:25;;;;;;;0.20;0.10;;;;;;;;;;5002410;28;20056;-87
2022/09/09 14:31:51;;;;;;;0.22;0.17;;;;;;;;;;4995834;28;20081;-87
2022/09/09 14:34:50;;;;;;;;;;;;;;;;;;;;;
2022/09/09 14:37:35;;;;;;;0.20;0.10;;;;;;;;;;5013872;28;20064;-87
2022/09/09 14:40:05;;;;;;;0.20;0.10;;;;;;;;;;5006563;28;20122;-86
2022/09/09 14:42:46;;;;;;;0.20;0.10;;;;;;;;;;5014641;28;20049;-82
2022/09/09 14:45:21;;;;;;;0.20;0.10;;;;;;;;;;5017311;28;20407;-86
2022/09/09 14:47:49;;;;;;;0.20;0.10;;;;;;;;;;5007269;28;20046;-87
2022/09/09 14:50:22;;;;;;;0.20;0.10;;;;;;;;;;4996688;28;20540;-89
2022/09/09 14:53:08;;;;;;;0.20;0.10;;;;;;;;;;4991955;28;20037;-87
2022/09/09 14:55:42;;;;;;;0.20;0.10;;;;;;;;;;5005311;28;20046;-88
2022/09/09 14:58:08;;;;;;;0.20;0.10;;;;;;;;;;5000553;28;20080;-86
2022/09/09 15:00:45;;;;;;;0.20;0.10;;;;;;;;;;4980130;28;20564;-86
2022/09/09 15:03:14;;;;;;;0.20;0.10;;;;;;;;;;5007663;28;20077;-91
2022/09/09 15:05:47;;;;;;;0.20;0.10;;;;;;;;;;4991951;28;21310;-86
2022/09/09 15:08:28;;;;;;;0.20;0.10;;;;;;;;;;5026419;28;20049;-86
2022/09/09 15:11:11;;;;;;;0.20;0.10;;;;;;;;;;5002950;28;20106;-86
2022/09/09 15:13:39;;;;;;;0.20;0.10;;;;;;;;;;4989747;28;20518;-86
2022/09/09 15:16:11;;;;;;;0.20;0.10;;;;;;;;;;5010582;28;20102;-83
2022/09/09 15:18:42;;;;;;;0.20;0.10;;;;;;;;;;4988932;28;20092;-85
2022/09/09 15:21:16;;;;;;;0.20;0.10;;;;;;;;;;4982707;28;20041;-86
2022/09/09 15:23:42;;;;;;;0.20;0.10;;;;;;;;;;4978859;28;20080;-86
2022/09/09 15:26:13;;;;;;;0.20;0.10;;;;;;;;;;5000211;28;20042;-86
2022/09/09 15:28:40;;;;;;;0.20;0.10;;;;;;;;;;5007102;28;20048;-84
2022/09/09 15:31:08;;;;;;;0.20;0.10;;;;;;;;;;5004969;28;20207;-83
2022/09/09 15:33:36;;;;;;;0.20;0.10;;;;;;;;;;5017062;28;20160;-86
2022/09/09 15:36:15;;;;;;;0.20;0.10;;;;;;;;;;4991368;28;20107;-85
2022/09/09 15:38:56;;;;;;;0.20;0.10;;;;;;;;;;5002658;28;20553;-87
2022/09/09 15:41:35;;;;;;;0.20;0.10;;;;;;;;;;4991182;28;20420;-87
2022/09/09 15:44:16;;;;;;;0.20;0.10;;;;;;;;;;5011482;28;20053;-87
2022/09/09 15:46:44;;;;;;;0.20;0.10;;;;;;;;;;5018929;28;20056;-85
2022/09/09 15:49:12;;;;;;;0.20;0.10;;;;;;;;;;5016200;28;20103;-86
2022/09/09 15:51:39;;;;;;;0.20;0.10;;;;;;;;;;4999960;28;21075;-86
2022/09/09 15:54:09;;;;;;;0.20;0.10;;;;;;;;;;4995891;28;20042;-90